Time;durP1;ratioP1;P1;durP2;ratioP2;P2;SDS_P1;SDS_P2;PMS_P1;PMS_P2;Temp;Humidity;BMP_temperature;BMP_pressure;BME280_temperature;BME280_humidity;BME280_pressure;Samples;Min_cycle;Max_cycle;Signal;HPM_P1;HPM_P2
2023/05/16 11:32:06;;;;;;;2.70;2.33;;;;;;;;;;5309947;22;20050;-88
2023/05/16 11:34:36;;;;;;;3.10;2.33;;;;;;;;;;5013786;28;20381;-87
2023/05/16 11:37:02;;;;;;;2.20;2.00;;;;;;;;;;5013610;28;20026;-87
2023/05/16 11:39:30;;;;;;;1.60;1.50;;;;;;;;;;5013599;28;20032;-89
2023/05/16 11:41:56;;;;;;;2.13;1.70;;;;;;;;;;5013646;28;20034;-88
2023/05/16 17:12:32;;;;;;;4.22;3.85;;;;;;;;;;5345304;22;20061;-89
2023/05/16 17:14:58;;;;;;;1.85;1.75;;;;;;;;;;4997955;28;20053;-87
2023/05/16 17:17:24;;;;;;;1.63;1.52;;;;;;;;;;5016338;28;20041;-89
2023/05/16 17:19:50;;;;;;;1.85;1.60;;;;;;;;;;5030591;28;20049;-89
2023/05/16 17:22:16;;;;;;;1.10;1.00;;;;;;;;;;5017330;28;20022;-87
2023/05/16 17:24:42;;;;;;;1.00;1.00;;;;;;;;;;5035154;28;20125;-88
2023/05/16 17:27:07;;;;;;;2.00;1.00;;;;;;;;;;5011827;28;20026;-87
2023/05/16 17:29:33;;;;;;;1.60;1.30;;;;;;;;;;4998859;28;20022;-87
2023/05/16 17:31:59;;;;;;;1.30;1.10;;;;;;;;;;5015703;28;20021;-90
2023/05/16 17:34:24;;;;;;;1.10;1.10;;;;;;;;;;4998860;28;20026;-91
2023/05/16 17:36:50;;;;;;;1.30;0.93;;;;;;;;;;5013783;28;20029;-89
2023/05/16 17:39:15;;;;;;;1.20;1.10;;;;;;;;;;5035325;28;20022;-91
2023/05/16 17:41:41;;;;;;;2.67;1.25;;;;;;;;;;5035202;28;20033;-89
2023/05/16 17:44:07;;;;;;;1.05;1.05;;;;;;;;;;5035026;28;20026;-89
2023/05/16 17:46:34;;;;;;;1.00;1.00;;;;;;;;;;5017380;28;20025;-89
2023/05/16 17:48:59;;;;;;;1.92;1.63;;;;;;;;;;5017202;28;20183;-87
2023/05/16 17:51:25;;;;;;;1.00;0.90;;;;;;;;;;5017049;28;20080;-87
2023/05/16 17:53:51;;;;;;;1.70;0.80;;;;;;;;;;5001379;28;20025;-87
2023/05/16 17:56:17;;;;;;;1.20;1.10;;;;;;;;;;5015025;28;20033;-92
2023/05/16 17:58:44;;;;;;;0.98;0.98;;;;;;;;;;5014998;28;20033;-88
2023/05/16 18:01:11;;;;;;;1.10;1.10;;;;;;;;;;5014932;28;20088;-91
2023/05/16 18:03:39;;;;;;;1.67;1.13;;;;;;;;;;4997480;28;20416;-87
2023/05/16 18:06:05;;;;;;;2.22;1.00;;;;;;;;;;4997542;28;20049;-89
2023/05/16 18:08:31;;;;;;;1.35;1.25;;;;;;;;;;4997325;28;20033;-89
2023/05/16 18:10:56;;;;;;;2.15;0.90;;;;;;;;;;5014573;28;20053;-89
2023/05/16 18:13:22;;;;;;;1.23;1.13;;;;;;;;;;5015116;28;20488;-88
2023/05/16 18:15:49;;;;;;;1.75;1.10;;;;;;;;;;4996925;28;20029;-89
2023/05/16 18:18:16;;;;;;;1.00;1.00;;;;;;;;;;5014665;28;20049;-88
2023/05/16 18:20:41;;;;;;;1.80;1.05;;;;;;;;;;5014339;28;20037;-88
2023/05/16 18:23:07;;;;;;;1.55;1.08;;;;;;;;;;5014348;28;20030;-90
2023/05/16 18:25:32;;;;;;;0.90;0.90;;;;;;;;;;5014299;28;20030;-88
2023/05/16 18:27:58;;;;;;;1.10;1.00;;;;;;;;;;5029863;28;20064;-88
2023/05/16 18:30:23;;;;;;;1.05;1.05;;;;;;;;;;5034098;28;20021;-89
2023/05/16 18:32:49;;;;;;;1.55;1.10;;;;;;;;;;5034058;28;20071;-88
2023/05/16 18:35:14;;;;;;;1.40;1.30;;;;;;;;;;5016076;28;20037;-88
2023/05/16 18:37:40;;;;;;;1.20;1.10;;;;;;;;;;5016253;28;20087;-88
2023/05/16 18:40:07;;;;;;;1.05;0.95;;;;;;;;;;5033556;28;20350;-89
2023/05/16 18:42:32;;;;;;;1.40;1.30;;;;;;;;;;5033681;28;20028;-89
2023/05/16 18:44:58;;;;;;;1.00;1.00;;;;;;;;;;5016017;28;20025;-89
2023/05/16 18:47:23;;;;;;;1.73;1.20;;;;;;;;;;5015112;28;20033;-84
2023/05/16 18:49:49;;;;;;;1.20;1.10;;;;;;;;;;5014249;28;20346;-85
2023/05/16 18:52:14;;;;;;;1.52;1.10;;;;;;;;;;5014021;28;20064;-84
2023/05/16 18:54:40;;;;;;;1.00;1.00;;;;;;;;;;5014206;28;20026;-84
2023/05/16 18:57:06;;;;;;;1.13;1.10;;;;;;;;;;5014274;28;20131;-85
2023/05/16 18:59:32;;;;;;;1.48;1.38;;;;;;;;;;5014167;28;20049;-85
2023/05/16 19:01:58;;;;;;;2.47;1.00;;;;;;;;;;5014046;28;20029;-86
2023/05/16 19:04:24;;;;;;;1.20;1.10;;;;;;;;;;5014345;28;20030;-86
2023/05/16 19:06:50;;;;;;;0.95;0.95;;;;;;;;;;5013953;28;20014;-87
2023/05/16 19:09:16;;;;;;;1.42;1.30;;;;;;;;;;4996298;28;20018;-87
2023/05/16 19:11:41;;;;;;;2.28;1.17;;;;;;;;;;4996369;28;20025;-87
2023/05/16 19:14:07;;;;;;;1.15;1.05;;;;;;;;;;5013744;28;20074;-87
2023/05/16 19:16:33;;;;;;;0.93;0.90;;;;;;;;;;5013878;28;20022;-86
2023/05/16 19:18:59;;;;;;;2.22;1.20;;;;;;;;;;5013788;28;20033;-86
2023/05/16 19:21:25;;;;;;;1.00;1.00;;;;;;;;;;5015098;28;20037;-87
2023/05/16 19:23:51;;;;;;;1.95;1.10;;;;;;;;;;5000409;28;20030;-87
2023/05/16 19:26:16;;;;;;;1.98;1.08;;;;;;;;;;5018160;28;20564;-87
2023/05/16 19:28:42;;;;;;;2.53;1.00;;;;;;;;;;5017779;28;20029;-87
2023/05/16 19:31:09;;;;;;;1.65;1.00;;;;;;;;;;5017746;28;20030;-86
2023/05/16 19:33:35;;;;;;;0.90;0.90;;;;;;;;;;5000077;28;20033;-87
2023/05/16 19:36:03;;;;;;;1.48;1.23;;;;;;;;;;5000263;28;20022;-87
2023/05/16 19:38:29;;;;;;;0.73;0.73;;;;;;;;;;5017548;28;20029;-84
2023/05/16 19:40:55;;;;;;;0.98;0.93;;;;;;;;;;5017722;28;20191;-86
2023/05/16 19:43:20;;;;;;;1.98;1.10;;;;;;;;;;5017701;28;20354;-86
2023/05/16 19:45:45;;;;;;;1.00;1.00;;;;;;;;;;5017372;28;20030;-86
2023/05/16 19:48:11;;;;;;;0.70;0.70;;;;;;;;;;5017621;28;20049;-87
2023/05/16 19:50:36;;;;;;;0.82;0.82;;;;;;;;;;4999988;28;20469;-87
2023/05/16 19:53:02;;;;;;;2.45;0.95;;;;;;;;;;5017418;28;20025;-86
2023/05/16 19:55:29;;;;;;;0.80;0.80;;;;;;;;;;4999716;28;20473;-85
2023/05/16 19:57:54;;;;;;;1.17;0.90;;;;;;;;;;5017630;28;20469;-84
2023/05/16 20:00:20;;;;;;;1.33;1.13;;;;;;;;;;5000026;28;20080;-86
2023/05/16 20:02:46;;;;;;;1.33;1.15;;;;;;;;;;4999584;28;20038;-85
2023/05/16 20:05:13;;;;;;;2.13;1.00;;;;;;;;;;5017132;28;20379;-85
2023/05/16 20:07:41;;;;;;;0.90;0.90;;;;;;;;;;4999840;28;20117;-85
2023/05/16 20:10:07;;;;;;;1.02;0.90;;;;;;;;;;5017174;28;20030;-85
2023/05/16 20:12:33;;;;;;;0.90;0.90;;;;;;;;;;4999460;28;20038;-85
2023/05/16 20:14:58;;;;;;;0.90;0.90;;;;;;;;;;4999517;28;20053;-86
2023/05/16 20:17:25;;;;;;;1.75;0.80;;;;;;;;;;5017176;28;20065;-87
2023/05/16 20:19:50;;;;;;;1.80;1.10;;;;;;;;;;5016818;28;20488;-86
2023/05/16 20:22:16;;;;;;;0.80;0.80;;;;;;;;;;5016645;28;20034;-87
2023/05/16 20:24:41;;;;;;;1.13;0.80;;;;;;;;;;5016932;28;20037;-87
2023/05/16 20:27:06;;;;;;;1.73;1.63;;;;;;;;;;5016831;28;20022;-87
2023/05/16 20:29:32;;;;;;;1.58;1.48;;;;;;;;;;4999240;28;20030;-86
2023/05/16 20:31:59;;;;;;;1.80;1.70;;;;;;;;;;5016859;28;20033;-86
2023/05/16 20:34:24;;;;;;;1.63;1.50;;;;;;;;;;5016892;28;20112;-86
2023/05/16 20:36:50;;;;;;;2.45;1.85;;;;;;;;;;5016605;28;20441;-86
2023/05/16 20:39:15;;;;;;;2.35;1.50;;;;;;;;;;5016736;28;20480;-86
2023/05/16 20:41:41;;;;;;;2.75;1.80;;;;;;;;;;5016602;28;20069;-86
2023/05/16 20:44:06;;;;;;;3.00;2.17;;;;;;;;;;5016899;28;20106;-86
2023/05/16 20:46:32;;;;;;;2.80;1.77;;;;;;;;;;5016597;28;20030;-86
2023/05/16 20:48:57;;;;;;;2.05;1.70;;;;;;;;;;5016152;28;20037;-87
2023/05/16 20:51:23;;;;;;;2.15;1.95;;;;;;;;;;5016434;28;20477;-86
2023/05/16 20:53:48;;;;;;;3.10;2.10;;;;;;;;;;4998924;28;20033;-86
2023/05/16 20:56:14;;;;;;;3.38;2.10;;;;;;;;;;5016411;28;20061;-86
2023/05/16 20:58:40;;;;;;;2.63;2.20;;;;;;;;;;5016278;28;20495;-86
2023/05/16 21:01:07;;;;;;;1.92;1.80;;;;;;;;;;5016246;28;20026;-86
2023/05/16 21:03:33;;;;;;;3.38;1.75;;;;;;;;;;5016334;28;20125;-86
2023/05/16 21:05:59;;;;;;;2.28;1.88;;;;;;;;;;5016186;28;20101;-86
2023/05/16 21:08:24;;;;;;;2.17;1.98;;;;;;;;;;5016170;28;20058;-85
2023/05/16 21:10:50;;;;;;;2.10;1.90;;;;;;;;;;5016112;28;20025;-86
2023/05/16 21:13:15;;;;;;;2.80;1.90;;;;;;;;;;4998338;28;20136;-86
2023/05/16 21:15:40;;;;;;;2.33;1.77;;;;;;;;;;5016014;28;20026;-86
2023/05/16 21:18:06;;;;;;;2.30;1.85;;;;;;;;;;5015855;28;20416;-87
2023/05/16 21:20:31;;;;;;;2.20;2.00;;;;;;;;;;5015945;28;20546;-87
2023/05/16 21:22:57;;;;;;;3.17;1.90;;;;;;;;;;5015779;28;20048;-87
2023/05/16 21:25:22;;;;;;;3.13;1.90;;;;;;;;;;5015749;28;20041;-86
2023/05/16 21:27:48;;;;;;;2.67;2.00;;;;;;;;;;5015906;28;20469;-86
2023/05/16 21:30:13;;;;;;;5.47;2.10;;;;;;;;;;5015517;28;20022;-86
2023/05/16 21:32:39;;;;;;;4.07;1.63;;;;;;;;;;4982089;28;20053;-86
2023/05/16 21:35:05;;;;;;;1.90;1.80;;;;;;;;;;5015696;28;20030;-86
2023/05/16 21:37:31;;;;;;;2.35;1.60;;;;;;;;;;5015894;28;20025;-86
2023/05/16 21:39:57;;;;;;;3.22;1.63;;;;;;;;;;5015871;28;20033;-86
2023/05/16 21:42:22;;;;;;;1.95;1.80;;;;;;;;;;5015416;28;20480;-86
2023/05/16 21:44:48;;;;;;;3.05;2.00;;;;;;;;;;5015216;28;20050;-86
2023/05/16 21:47:13;;;;;;;2.38;1.80;;;;;;;;;;5015683;28;20365;-86
2023/05/16 21:49:39;;;;;;;2.22;1.55;;;;;;;;;;5015152;28;20046;-85
2023/05/16 21:52:04;;;;;;;2.88;2.08;;;;;;;;;;5015871;28;20026;-86
2023/05/16 21:54:30;;;;;;;3.33;1.80;;;;;;;;;;5015617;28;20373;-87
2023/05/16 21:56:55;;;;;;;2.55;1.95;;;;;;;;;;5015396;28;20034;-87
2023/05/16 21:59:21;;;;;;;2.78;2.08;;;;;;;;;;5015226;28;20021;-87
2023/05/16 22:01:46;;;;;;;2.65;1.77;;;;;;;;;;5015431;28;20037;-86
2023/05/16 22:04:12;;;;;;;3.47;2.13;;;;;;;;;;5015407;28;20022;-86
